createdAt,value
2023-05-04T00:01:15.973Z,8.52
2023-05-04T00:03:45.253Z,8.73
2023-05-04T00:06:14.463Z,8.65
2023-05-04T00:08:44.829Z,8.23
2023-05-04T00:11:13.849Z,8.50
2023-05-04T00:13:42.884Z,8.43
2023-05-04T00:16:12.380Z,9.48
2023-05-04T00:18:41.477Z,9.38
2023-05-04T00:21:10.492Z,8.90
2023-05-04T00:23:39.530Z,9.48
2023-05-04T00:26:09.977Z,8.95
2023-05-04T00:28:39.805Z,9.35
2023-05-04T00:31:08.970Z,9.60
2023-05-04T00:33:38.049Z,9.43
2023-05-04T00:36:07.510Z,9.27
2023-05-04T00:38:49.072Z,10.18
2023-05-04T00:41:20.254Z,9.82
2023-05-04T00:43:49.703Z,9.63
2023-05-04T00:46:19.491Z,9.98
2023-05-04T00:48:51.659Z,10.05
2023-05-04T00:51:22.405Z,9.38
2023-05-04T00:53:51.995Z,10.10
2023-05-04T00:56:23.899Z,10.07
2023-05-04T00:58:54.706Z,10.13
2023-05-04T01:01:23.965Z,9.95
2023-05-04T01:03:54.393Z,10.52
2023-05-04T01:06:31.223Z,10.53
2023-05-04T01:09:07.733Z,10.90
2023-05-04T01:11:44.724Z,11.20
2023-05-04T01:14:15.291Z,10.25
2023-05-04T01:16:44.327Z,10.15
2023-05-04T01:19:13.398Z,10.27
2023-05-04T01:21:43.930Z,10.65
2023-05-04T01:24:13.284Z,10.35
2023-05-04T01:26:46.727Z,11.02
2023-05-04T01:29:19.314Z,10.75
2023-05-04T01:31:48.357Z,11.35
2023-05-04T01:34:18.446Z,11.40
2023-05-04T01:36:49.555Z,11.45
2023-05-04T01:39:18.563Z,11.07
2023-05-04T01:41:47.613Z,13.07
2023-05-04T01:44:17.943Z,11.55
2023-05-04T01:46:47.098Z,11.68
2023-05-04T01:49:16.093Z,11.48
2023-05-04T01:51:46.787Z,11.65
2023-05-04T01:54:17.634Z,11.57
2023-05-04T01:56:46.652Z,11.85
2023-05-04T01:59:15.954Z,12.60
2023-05-04T02:01:45.051Z,13.88
2023-05-04T02:04:14.130Z,13.10
2023-05-04T02:06:43.119Z,11.20
2023-05-04T02:09:12.130Z,12.10
2023-05-04T02:11:42.626Z,11.77
2023-05-04T02:14:11.653Z,12.33
2023-05-04T02:16:40.837Z,11.90
2023-05-04T02:19:09.979Z,12.48
2023-05-04T02:21:39.022Z,12.18
2023-05-04T02:24:08.365Z,12.15
2023-05-04T02:26:37.586Z,12.15
2023-05-04T02:29:08.044Z,12.30
2023-05-04T02:31:37.214Z,12.00
2023-05-04T02:34:06.357Z,12.68
2023-05-04T02:36:35.465Z,11.60
2023-05-04T02:39:04.662Z,12.60
2023-05-04T02:41:33.695Z,11.85
2023-05-04T02:44:02.726Z,11.25
2023-05-04T02:46:35.399Z,11.73
2023-05-04T02:49:04.459Z,11.37
2023-05-04T02:51:33.512Z,11.23
2023-05-04T02:54:02.849Z,11.10
2023-05-04T02:56:32.002Z,11.00
2023-05-04T02:59:01.055Z,11.05
2023-05-04T03:01:30.826Z,10.55
2023-05-04T03:04:02.113Z,11.68
2023-05-04T03:06:31.806Z,10.38
2023-05-04T03:09:01.217Z,10.63
2023-05-04T03:11:30.224Z,11.25
2023-05-04T03:13:59.258Z,10.68
2023-05-04T03:16:28.314Z,11.23
2023-05-04T03:18:58.248Z,11.23
2023-05-04T03:21:29.249Z,10.90
2023-05-04T03:23:58.261Z,11.25
2023-05-04T03:26:27.299Z,11.07
2023-05-04T03:28:59.419Z,10.32
2023-05-04T03:31:28.468Z,10.85
2023-05-04T03:33:58.242Z,11.73
2023-05-04T03:36:28.682Z,11.13
2023-05-04T03:38:58.016Z,11.30
2023-05-04T03:41:27.164Z,11.85
2023-05-04T03:43:56.238Z,12.70
2023-05-04T03:46:25.269Z,12.30
2023-05-04T03:48:54.572Z,11.52
2023-05-04T03:51:23.647Z,11.57
2023-05-04T03:53:54.066Z,13.25
2023-05-04T03:56:23.073Z,13.63
2023-05-04T03:58:52.060Z,12.45
2023-05-04T04:01:25.066Z,13.38
2023-05-04T04:03:54.237Z,12.70
2023-05-04T04:06:23.690Z,13.63
2023-05-04T04:08:55.806Z,13.40
2023-05-04T04:11:25.205Z,14.40
2023-05-04T04:13:54.333Z,14.05
2023-05-04T04:16:23.743Z,13.70
2023-05-04T04:18:52.810Z,13.15
2023-05-04T04:21:22.124Z,13.48
2023-05-04T04:23:51.196Z,12.93
2023-05-04T04:26:21.661Z,13.32
2023-05-04T04:28:51.073Z,13.93
2023-05-04T04:31:20.274Z,13.25
2023-05-04T04:33:51.515Z,12.80
2023-05-04T04:36:20.836Z,11.88
2023-05-04T04:38:49.898Z,13.05
2023-05-04T04:41:19.237Z,13.02
2023-05-04T04:43:49.661Z,13.48
2023-05-04T04:46:19.382Z,12.77
2023-05-04T04:48:48.415Z,11.88
2023-05-04T04:51:17.438Z,12.07
2023-05-04T04:53:46.486Z,11.63
2023-05-04T04:56:18.502Z,11.57
2023-05-04T04:58:47.591Z,11.85
2023-05-04T05:01:18.988Z,11.43
2023-05-04T05:03:49.194Z,11.85
2023-05-04T05:06:18.549Z,11.48
2023-05-04T05:08:47.529Z,10.98
2023-05-04T05:11:16.589Z,11.20
2023-05-04T05:13:45.601Z,11.23
2023-05-04T05:16:14.660Z,10.55
2023-05-04T05:18:46.048Z,10.38
2023-05-04T05:23:44.151Z,9.77
2023-05-04T05:26:13.218Z,9.38
2023-05-04T05:28:42.726Z,8.68
2023-05-04T05:31:11.817Z,8.60
2023-05-04T05:33:41.747Z,7.82
2023-05-04T05:36:12.390Z,7.95
2023-05-04T05:38:41.529Z,7.70
2023-05-04T05:41:11.528Z,7.65
2023-05-04T05:43:41.411Z,8.40
2023-05-04T05:46:10.470Z,7.40
2023-05-04T05:48:39.546Z,8.90
2023-05-04T05:51:08.565Z,8.48
2023-05-04T05:53:38.976Z,10.63
2023-05-04T05:56:08.304Z,11.00
2023-05-04T05:58:37.595Z,10.80
2023-05-04T06:01:06.610Z,12.75
2023-05-04T06:03:35.838Z,12.77
2023-05-04T06:06:05.096Z,12.70
2023-05-04T06:08:34.251Z,13.70
2023-05-04T06:11:04.783Z,14.75
2023-05-04T06:13:33.732Z,13.27
2023-05-04T06:16:02.733Z,14.02
2023-05-04T06:18:31.808Z,14.30
2023-05-04T06:21:01.405Z,14.30
2023-05-04T06:23:30.563Z,13.38
2023-05-04T06:25:59.631Z,13.32
2023-05-04T06:28:30.073Z,13.23
2023-05-04T06:30:59.165Z,12.93
2023-05-04T06:33:28.237Z,12.82
2023-05-04T06:35:57.236Z,12.73
2023-05-04T06:38:26.302Z,12.32
2023-05-04T06:40:55.383Z,12.70
2023-05-04T06:43:24.347Z,12.05
2023-05-04T06:45:54.866Z,12.38
2023-05-04T06:48:23.867Z,12.55
2023-05-04T06:50:53.425Z,12.20
2023-05-04T06:53:22.833Z,13.20
2023-05-04T06:55:52.200Z,13.77
2023-05-04T06:58:21.943Z,12.93
2023-05-04T07:00:51.308Z,13.77
2023-05-04T07:03:21.808Z,12.90
2023-05-04T07:05:51.209Z,13.73
2023-05-04T07:08:20.904Z,13.70
2023-05-04T07:10:50.189Z,13.55
2023-05-04T07:13:19.307Z,12.90
2023-05-04T07:15:48.280Z,13.13
2023-05-04T07:18:17.424Z,13.45
2023-05-04T07:20:47.846Z,13.90
2023-05-04T07:23:16.874Z,13.33
2023-05-04T07:25:45.974Z,14.10
2023-05-04T07:28:16.684Z,14.07
2023-05-04T07:30:45.905Z,13.43
2023-05-04T07:33:15.532Z,14.38
2023-05-04T07:35:44.691Z,13.60
2023-05-04T07:39:08.810Z,13.43
2023-05-04T07:41:58.053Z,13.20
2023-05-04T07:44:27.044Z,12.40
2023-05-04T07:46:56.105Z,11.95
2023-05-04T07:49:25.152Z,12.05
2023-05-04T07:51:54.509Z,12.60
2023-05-04T07:54:23.648Z,12.52
2023-05-04T07:56:53.877Z,11.85
2023-05-04T07:59:24.378Z,12.20
2023-05-04T08:01:53.472Z,11.85
2023-05-04T08:04:22.486Z,11.27
2023-05-04T08:06:51.571Z,12.63
2023-05-04T08:09:20.638Z,12.50
2023-05-04T08:11:50.404Z,11.15
2023-05-04T08:14:19.640Z,12.00
2023-05-04T08:16:49.976Z,11.27
2023-05-04T08:19:21.015Z,11.53
2023-05-04T08:21:50.437Z,12.07
2023-05-04T08:24:19.614Z,11.07
2023-05-04T08:26:55.924Z,11.25
2023-05-04T08:29:33.331Z,11.93
2023-05-04T08:32:04.000Z,12.18
2023-05-04T08:34:33.237Z,12.20
2023-05-04T08:37:02.451Z,12.27
2023-05-04T08:39:31.764Z,12.45
2023-05-04T08:42:00.796Z,11.75
2023-05-04T08:44:31.309Z,12.27
2023-05-04T08:47:00.403Z,13.23
2023-05-04T08:49:30.958Z,13.32
2023-05-04T08:52:01.740Z,15.43
2023-05-04T08:54:31.190Z,14.70
2023-05-04T08:57:00.574Z,15.38
2023-05-04T08:59:32.508Z,16.35
2023-05-04T09:02:02.400Z,17.27
2023-05-04T09:04:33.582Z,17.80
2023-05-04T09:07:02.684Z,19.23
2023-05-04T09:09:32.321Z,18.85
2023-05-04T09:12:01.339Z,18.90
2023-05-04T09:14:37.245Z,19.42
2023-05-04T09:17:16.521Z,19.95
2023-05-04T09:19:46.950Z,19.15
2023-05-04T09:22:17.350Z,19.47
2023-05-04T09:24:46.927Z,19.13
2023-05-04T09:27:18.119Z,19.95
2023-05-04T09:32:24.238Z,19.35
2023-05-04T09:34:56.518Z,19.52
2023-05-04T09:37:25.737Z,20.48
2023-05-04T09:39:55.794Z,20.25
2023-05-04T09:42:25.392Z,21.08
2023-05-04T09:45:05.331Z,20.98
2023-05-04T09:47:37.194Z,21.88
2023-05-04T09:50:17.635Z,20.45
2023-05-04T09:52:48.402Z,20.80
2023-05-04T09:55:18.867Z,21.10
2023-05-04T09:57:49.291Z,21.73
2023-05-04T10:00:20.062Z,20.73
2023-05-04T10:02:50.225Z,21.40
2023-05-04T10:05:21.890Z,21.67
2023-05-04T10:07:52.195Z,21.05
2023-05-04T10:10:21.316Z,20.50
2023-05-04T10:12:50.352Z,21.13
2023-05-04T10:15:22.113Z,21.75
2023-05-04T10:18:10.146Z,21.42
2023-05-04T10:21:15.622Z,21.48
2023-05-04T10:24:00.990Z,21.40
2023-05-04T10:27:03.506Z,22.30
2023-05-04T10:29:34.333Z,22.42
2023-05-04T10:32:04.126Z,23.15
2023-05-04T10:34:34.531Z,22.67
2023-05-04T10:37:05.160Z,23.90
2023-05-04T10:39:36.185Z,23.02
2023-05-04T10:42:07.132Z,22.63
2023-05-04T10:44:37.611Z,23.48
2023-05-04T10:47:08.270Z,24.27
2023-05-04T10:49:38.127Z,23.63
2023-05-04T10:52:10.597Z,22.15
2023-05-04T10:54:40.940Z,21.80
2023-05-04T10:57:11.044Z,21.10
2023-05-04T10:59:41.362Z,20.42
2023-05-04T11:02:10.580Z,20.23
2023-05-04T11:04:40.004Z,21.35
2023-05-04T11:07:10.465Z,20.48
2023-05-04T11:09:40.791Z,20.67
2023-05-04T11:12:11.554Z,21.65
2023-05-04T11:14:42.671Z,22.17
2023-05-04T11:19:50.958Z,21.48
2023-05-04T11:22:21.677Z,20.67
2023-05-04T11:24:50.725Z,20.85
2023-05-04T11:27:23.961Z,20.52
2023-05-04T11:29:57.967Z,21.27
2023-05-04T11:32:37.429Z,22.00
2023-05-04T11:35:09.643Z,20.63
2023-05-04T11:37:45.056Z,21.13
2023-05-04T11:40:15.401Z,20.73
2023-05-04T11:42:45.032Z,21.50
2023-05-04T11:45:18.219Z,21.70
2023-05-04T11:47:48.447Z,21.35
2023-05-04T11:50:19.147Z,21.27
2023-05-04T11:52:49.901Z,21.60
2023-05-04T11:55:29.258Z,21.55
2023-05-04T11:57:59.415Z,21.65
2023-05-04T12:00:40.147Z,21.85
2023-05-04T12:03:13.020Z,22.08
2023-05-04T12:05:48.383Z,22.58
2023-05-04T12:08:30.706Z,22.00
2023-05-04T12:11:16.554Z,22.13
2023-05-04T12:13:46.467Z,21.58
2023-05-04T12:16:16.792Z,23.08
2023-05-04T12:18:47.474Z,21.58
2023-05-04T12:21:18.630Z,22.38
2023-05-04T12:23:49.193Z,21.77
2023-05-04T12:26:19.817Z,22.00
2023-05-04T12:28:49.013Z,22.85
2023-05-04T12:31:18.282Z,22.92
2023-05-04T12:33:47.398Z,23.30
2023-05-04T12:36:16.560Z,23.15
2023-05-04T12:38:46.187Z,22.92
2023-05-04T12:41:16.837Z,21.38
2023-05-04T12:43:46.079Z,21.83
2023-05-04T12:46:17.191Z,23.10
2023-05-04T12:48:46.273Z,22.48
2023-05-04T12:51:15.370Z,21.88
2023-05-04T12:53:44.409Z,21.63
2023-05-04T12:56:13.471Z,22.00
2023-05-04T12:58:43.908Z,22.65
2023-05-04T13:01:13.028Z,22.80
2023-05-04T13:03:42.299Z,23.00
2023-05-04T13:06:11.423Z,22.35
2023-05-04T13:08:40.434Z,23.20
2023-05-04T13:11:09.491Z,23.23
2023-05-04T13:13:38.539Z,23.67
2023-05-04T13:16:09.116Z,22.90
2023-05-04T13:18:38.103Z,22.88
2023-05-04T13:21:07.182Z,23.98
2023-05-04T13:23:36.311Z,23.05
2023-05-04T13:26:06.494Z,23.90
2023-05-04T13:28:37.820Z,23.08
2023-05-04T13:31:10.297Z,23.13
2023-05-04T13:33:39.793Z,22.73
2023-05-04T13:36:09.140Z,22.83
2023-05-04T13:38:38.833Z,22.40
2023-05-04T13:41:07.907Z,24.13
2023-05-04T13:43:36.945Z,22.90
2023-05-04T13:46:06.067Z,22.67
2023-05-04T13:48:36.453Z,22.65
2023-05-04T13:51:05.624Z,20.80
2023-05-04T13:53:34.628Z,23.20
2023-05-04T13:56:03.756Z,21.92
2023-05-04T13:58:32.781Z,24.02
2023-05-04T14:01:01.884Z,22.77
2023-05-04T14:03:33.541Z,23.08
2023-05-04T14:06:04.029Z,22.90
2023-05-04T14:08:33.094Z,22.13
2023-05-04T14:11:02.094Z,23.50
2023-05-04T14:13:31.158Z,22.55
2023-05-04T14:16:00.221Z,23.48
2023-05-04T14:18:32.217Z,22.80
2023-05-04T14:21:01.715Z,22.50
2023-05-04T14:23:32.165Z,22.15
2023-05-04T14:26:01.268Z,22.43
2023-05-04T14:28:30.634Z,22.60
2023-05-04T14:31:08.560Z,23.30
2023-05-04T14:33:37.685Z,22.17
2023-05-04T14:36:07.345Z,22.48
2023-05-04T14:38:37.948Z,22.70
2023-05-04T14:41:07.366Z,22.75
2023-05-04T14:43:36.383Z,23.35
2023-05-04T14:46:05.572Z,22.30
2023-05-04T14:48:34.627Z,23.08
2023-05-04T14:51:03.688Z,23.83
2023-05-04T14:53:36.911Z,23.73
2023-05-04T14:56:11.090Z,23.00
2023-05-04T14:58:40.134Z,23.92
2023-05-04T15:01:09.215Z,23.63
2023-05-04T15:03:39.295Z,23.80
2023-05-04T15:06:10.265Z,23.92
2023-05-04T15:08:39.320Z,24.02
2023-05-04T15:11:08.402Z,23.35
2023-05-04T15:13:38.790Z,23.80
2023-05-04T15:16:08.144Z,24.00
2023-05-04T15:18:37.231Z,21.90
2023-05-04T15:21:06.276Z,23.42
2023-05-04T15:23:35.300Z,23.70
2023-05-04T15:26:04.500Z,23.02
2023-05-04T15:28:33.608Z,23.30
2023-05-04T15:31:07.314Z,22.77
2023-05-04T15:33:36.498Z,22.83
2023-05-04T15:36:09.004Z,23.45
2023-05-04T15:38:38.703Z,24.42
2023-05-04T15:41:07.802Z,23.95
2023-05-04T15:43:36.851Z,24.20
2023-05-04T15:46:07.384Z,23.38
2023-05-04T15:48:36.704Z,24.13
2023-05-04T15:51:10.998Z,23.33
2023-05-04T15:53:40.291Z,24.83
2023-05-04T15:56:09.651Z,23.05
2023-05-04T15:58:38.681Z,23.27
2023-05-04T16:01:13.932Z,21.15
2023-05-04T16:03:43.870Z,22.60
2023-05-04T16:06:13.022Z,22.23
2023-05-04T16:08:42.028Z,22.33
2023-05-04T16:11:11.246Z,22.85
2023-05-04T16:13:40.327Z,22.05
2023-05-04T16:16:11.355Z,21.95
2023-05-04T16:18:40.508Z,22.25
2023-05-04T16:21:10.216Z,22.42
2023-05-04T16:23:39.294Z,21.08
2023-05-04T16:26:08.411Z,21.65
2023-05-04T16:28:37.994Z,23.45
2023-05-04T16:31:09.563Z,21.52
2023-05-04T16:33:47.229Z,21.02
2023-05-04T16:36:16.341Z,21.40
2023-05-04T16:38:45.436Z,22.75
2023-05-04T16:41:14.542Z,22.17
2023-05-04T16:43:43.660Z,22.00
2023-05-04T16:46:12.703Z,23.50
2023-05-04T16:48:43.114Z,22.98
2023-05-04T16:51:13.449Z,23.83
2023-05-04T16:53:42.447Z,23.52
2023-05-04T16:56:18.455Z,24.77
2023-05-04T16:58:47.457Z,24.00
2023-05-04T17:01:16.518Z,23.20
2023-05-04T17:03:47.060Z,23.63
2023-05-04T17:06:16.196Z,23.10
2023-05-04T17:08:45.587Z,23.30
2023-05-04T17:11:14.638Z,23.63
2023-05-04T17:13:43.871Z,24.88
2023-05-04T17:16:12.944Z,22.27
2023-05-04T17:18:41.955Z,24.73
2023-05-04T17:21:12.429Z,26.60
2023-05-04T17:23:41.761Z,25.30
2023-05-04T17:26:10.761Z,25.92
2023-05-04T17:28:39.792Z,25.15
2023-05-04T17:31:12.009Z,26.75
2023-05-04T17:33:41.176Z,26.95
2023-05-04T17:36:12.423Z,26.00
2023-05-04T17:41:10.854Z,26.23
2023-05-04T17:43:39.976Z,24.52
2023-05-04T17:46:09.058Z,25.90
2023-05-04T17:48:38.130Z,25.88
2023-05-04T17:51:10.062Z,25.27
2023-05-04T17:53:40.531Z,25.38
2023-05-04T17:56:09.564Z,26.90
2023-05-04T17:58:38.559Z,26.58
2023-05-04T18:01:07.637Z,26.85
2023-05-04T18:03:36.907Z,27.83
2023-05-04T18:06:08.320Z,27.42
2023-05-04T18:08:37.574Z,27.38
2023-05-04T18:11:07.999Z,28.15
2023-05-04T18:13:37.000Z,28.30
2023-05-04T18:16:06.640Z,28.00
2023-05-04T18:18:35.676Z,28.95
2023-05-04T18:21:04.965Z,27.40
2023-05-04T18:23:34.081Z,29.55
2023-05-04T18:26:03.236Z,27.15
2023-05-04T18:28:33.728Z,27.85
2023-05-04T18:31:02.773Z,26.57
2023-05-04T18:33:32.624Z,27.58
2023-05-04T18:36:01.686Z,27.08
2023-05-04T18:38:30.743Z,26.45
2023-05-04T18:40:59.825Z,26.02
2023-05-04T18:43:28.945Z,26.67
2023-05-04T18:45:59.623Z,25.42
2023-05-04T18:48:28.679Z,26.75
2023-05-04T18:50:58.212Z,29.13
2023-05-04T18:53:27.604Z,26.83
2023-05-04T18:56:04.132Z,27.70
2023-05-04T18:58:33.795Z,28.67
2023-05-04T19:01:04.354Z,28.38
2023-05-04T19:03:34.045Z,25.55
2023-05-04T19:06:03.257Z,27.45
2023-05-04T19:08:32.548Z,26.58
2023-05-04T19:11:03.257Z,24.65
2023-05-04T19:13:32.395Z,26.02
2023-05-04T19:16:01.584Z,25.38
2023-05-04T19:18:32.240Z,25.02
2023-05-04T19:21:05.660Z,25.58
2023-05-04T19:23:34.874Z,25.20
2023-05-04T19:26:04.231Z,24.10
2023-05-04T19:28:33.402Z,23.20
2023-05-04T19:31:02.604Z,23.00
2023-05-04T19:33:44.453Z,22.33
2023-05-04T19:36:18.015Z,22.15
2023-05-04T19:38:47.116Z,22.05
2023-05-04T19:41:16.239Z,22.02
2023-05-04T19:43:45.254Z,22.35
2023-05-04T19:46:14.306Z,23.30
2023-05-04T19:48:44.825Z,21.88
2023-05-04T19:51:14.196Z,23.00
2023-05-04T19:53:43.215Z,21.17
2023-05-04T19:56:15.294Z,22.52
2023-05-04T19:58:44.374Z,19.85
2023-05-04T20:01:13.440Z,22.17
2023-05-04T20:03:43.095Z,21.77
2023-05-04T20:06:13.889Z,21.63
2023-05-04T20:08:42.902Z,21.50
2023-05-04T20:11:13.220Z,21.92
2023-05-04T20:13:42.701Z,21.77
2023-05-04T20:16:12.757Z,22.40
2023-05-04T20:18:41.769Z,24.50
2023-05-04T20:21:10.774Z,24.67
2023-05-04T20:23:41.266Z,24.42
2023-05-04T20:26:10.257Z,23.37
2023-05-04T20:28:39.273Z,23.95
2023-05-04T20:31:09.268Z,24.77
2023-05-04T20:33:38.421Z,25.02
2023-05-04T20:36:09.645Z,25.45
2023-05-04T20:38:40.130Z,25.60
2023-05-04T20:41:09.493Z,25.47
2023-05-04T20:43:38.609Z,26.67
2023-05-04T20:46:07.996Z,27.33
2023-05-04T20:48:37.085Z,28.48
2023-05-04T20:51:14.564Z,29.17
2023-05-04T20:53:45.709Z,30.75
2023-05-04T20:56:15.549Z,31.83
2023-05-04T20:58:44.610Z,32.97
2023-05-04T21:01:13.730Z,33.63
2023-05-04T21:03:42.850Z,34.35
2023-05-04T21:06:12.520Z,34.67
2023-05-04T21:08:41.709Z,34.40
2023-05-04T21:11:12.155Z,34.15
2023-05-04T21:13:41.259Z,32.67
2023-05-04T21:16:10.484Z,34.15
2023-05-04T21:18:39.550Z,33.45
2023-05-04T21:21:08.912Z,34.28
2023-05-04T21:23:37.961Z,32.33
2023-05-04T21:26:07.268Z,34.70
2023-05-04T21:28:37.817Z,34.75
2023-05-04T21:31:08.900Z,33.45
2023-05-04T21:33:38.015Z,33.33
2023-05-04T21:36:14.210Z,33.70
2023-05-04T21:38:43.788Z,33.53
2023-05-04T21:41:13.891Z,33.60
2023-05-04T21:43:44.904Z,32.60
2023-05-04T21:46:14.102Z,32.78
2023-05-04T21:48:43.091Z,32.40
2023-05-04T21:51:12.099Z,31.85
2023-05-04T21:53:43.652Z,30.38
2023-05-04T21:56:13.542Z,29.90
2023-05-04T21:58:43.908Z,28.15
2023-05-04T22:01:17.104Z,27.67
2023-05-04T22:03:46.873Z,25.90
2023-05-04T22:06:16.758Z,22.77
2023-05-04T22:08:46.039Z,21.45
2023-05-04T22:11:15.069Z,20.20
2023-05-04T22:13:45.456Z,18.42
2023-05-04T22:16:14.490Z,17.20
2023-05-04T22:18:43.516Z,14.85
2023-05-04T22:21:12.506Z,13.25
2023-05-04T22:23:41.590Z,12.95
2023-05-04T22:26:10.636Z,11.88
2023-05-04T22:28:39.697Z,11.98
2023-05-04T22:31:10.301Z,13.25
2023-05-04T22:33:39.400Z,12.98
2023-05-04T22:36:09.134Z,13.63
2023-05-04T22:38:38.153Z,13.70
2023-05-04T22:41:07.198Z,13.57
2023-05-04T22:43:36.261Z,14.63
2023-05-04T22:46:05.394Z,12.07
2023-05-04T22:48:35.785Z,13.43
2023-05-04T22:51:04.911Z,12.37
2023-05-04T22:53:33.909Z,11.40
2023-05-04T22:56:02.949Z,11.65
2023-05-04T22:58:31.994Z,10.38
2023-05-04T23:01:00.993Z,9.70
2023-05-04T23:03:30.147Z,9.02
2023-05-04T23:06:01.343Z,11.70
2023-05-04T23:08:30.374Z,12.10
2023-05-04T23:10:59.494Z,9.60
2023-05-04T23:13:28.587Z,9.30
2023-05-04T23:15:58.102Z,7.10
2023-05-04T23:18:27.092Z,6.78
2023-05-04T23:20:56.053Z,5.97
2023-05-04T23:23:26.510Z,6.03
2023-05-04T23:25:55.521Z,5.70
2023-05-04T23:28:24.620Z,5.80
2023-05-04T23:30:55.908Z,4.88
2023-05-04T23:35:56.590Z,5.75
2023-05-04T23:38:27.090Z,6.20
2023-05-04T23:40:56.049Z,5.20
2023-05-04T23:43:25.065Z,6.30
2023-05-04T23:46:01.210Z,5.95
2023-05-04T23:48:30.726Z,6.88
2023-05-04T23:51:03.840Z,5.93
2023-05-04T23:53:35.392Z,6.80
2023-05-04T23:56:06.237Z,6.63
2023-05-04T23:58:36.012Z,8.23
